Time;durP1;ratioP1;P1;durP2;ratioP2;P2;SDS_P1;SDS_P2;PMS_P1;PMS_P2;Temp;Humidity;BMP_temperature;BMP_pressure;BME280_temperature;BME280_humidity;BME280_pressure;Samples;Min_cycle;Max_cycle;Signal;HPM_P1;HPM_P2
2021/05/12 00:01:07;;;;;;;;;;;;;;;21.59;55.69;100111.47;5019405;27;98144;-75
2021/05/12 00:03:34;;;;;;;;;;;;;;;21.68;55.38;100116.00;5026970;27;98140;-74
2021/05/12 00:06:00;;;;;;;;;;;;;;;21.35;55.74;100127.97;5029291;27;99221;-75
2021/05/12 00:08:26;;;;;;;;;;;;;;;21.33;55.24;100132.66;5029986;27;98772;-75
2021/05/12 00:10:52;;;;;;;;;;;;;;;20.66;56.70;100127.81;5031300;27;98684;-75
2021/05/12 00:13:19;;;;;;;;;;;;;;;21.34;55.72;100128.94;5032154;27;97692;-75
2021/05/12 00:15:45;;;;;;;;;;;;;;;20.84;56.40;100136.09;5026206;27;98870;-74
2021/05/12 00:18:14;;;;;;;;;;;;;;;21.05;56.08;100150.34;5038769;27;98947;-76
2021/05/12 00:20:41;;;;;;;;;;;;;;;20.97;56.07;100152.84;5024042;28;98040;-76
2021/05/12 00:23:09;;;;;;;;;;;;;;;21.06;55.84;100158.25;5031802;28;98341;-76
2021/05/12 00:25:35;;;;;;;;;;;;;;;21.20;55.28;100154.34;5033162;28;99325;-77
2021/05/12 00:28:01;;;;;;;;;;;;;;;20.92;56.07;100158.63;5032313;28;97678;-75
2021/05/12 00:30:27;;;;;;;;;;;;;;;21.23;55.30;100164.84;5032819;27;97097;-77
2021/05/12 00:32:53;;;;;;;;;;;;;;;21.04;55.73;100164.75;5031880;27;97263;-75
2021/05/12 00:35:19;;;;;;;;;;;;;;;21.07;55.88;100165.31;5030573;27;99297;-74
2021/05/12 00:37:45;;;;;;;;;;;;;;;20.92;56.19;100177.41;5030872;27;98813;-76
2021/05/12 00:40:12;;;;;;;;;;;;;;;21.33;55.29;100186.38;5032169;27;96957;-75
2021/05/12 00:42:38;;;;;;;;;;;;;;;21.67;54.58;100185.03;5032071;27;97203;-75
2021/05/12 00:45:05;;;;;;;;;;;;;;;21.09;54.81;100179.47;5032172;27;99051;-75
2021/05/12 00:47:33;;;;;;;;;;;;;;;20.58;55.90;100181.31;5032885;27;98801;-75
2021/05/12 00:49:59;;;;;;;;;;;;;;;20.58;55.98;100181.31;5034752;27;98736;-74
2021/05/12 00:52:25;;;;;;;;;;;;;;;20.43;56.00;100194.19;5033297;27;97132;-75
2021/05/12 00:54:52;;;;;;;;;;;;;;;20.45;55.62;100184.19;5035322;27;98982;-74
2021/05/12 00:57:18;;;;;;;;;;;;;;;20.59;55.98;100172.28;5032985;27;98803;-76
2021/05/12 00:59:45;;;;;;;;;;;;;;;20.93;54.56;100178.28;5029000;27;96788;-74
2021/05/12 01:02:11;;;;;;;;;;;;;;;20.78;54.94;100198.38;5030016;28;97439;-74
2021/05/12 01:04:38;;;;;;;;;;;;;;;20.75;54.47;100194.13;5028241;28;98821;-74
2021/05/12 01:07:04;;;;;;;;;;;;;;;20.71;53.87;100194.53;5033932;28;98931;-75
2021/05/12 01:09:30;;;;;;;;;;;;;;;20.44;54.86;100216.53;5030417;28;97267;-74
2021/05/12 01:11:55;;;;;;;;;;;;;;;19.88;56.15;100219.41;5032828;28;96859;-76
2021/05/12 01:14:21;;;;;;;;;;;;;;;20.57;54.63;100219.88;5029442;27;99156;-75
2021/05/12 01:16:47;;;;;;;;;;;;;;;20.69;54.12;100221.50;5031024;27;98854;-74
2021/05/12 01:19:13;;;;;;;;;;;;;;;20.52;53.90;100219.41;5035417;27;96832;-74
2021/05/12 01:21:40;;;;;;;;;;;;;;;20.28;54.59;100216.94;5034118;28;97217;-75
2021/05/12 01:24:06;;;;;;;;;;;;;;;20.27;54.54;100224.16;5033136;28;98209;-74
2021/05/12 01:26:32;;;;;;;;;;;;;;;19.95;55.48;100214.41;5033189;27;98819;-74
2021/05/12 01:28:58;;;;;;;;;;;;;;;19.81;56.01;100211.03;5032951;27;96965;-74
2021/05/12 01:31:29;;;;;;;;;;;;;;;20.08;54.85;100220.44;5032667;28;97266;-75
2021/05/12 01:33:55;;;;;;;;;;;;;;;19.97;55.23;100233.88;5037582;27;97940;-73
2021/05/12 01:36:21;;;;;;;;;;;;;;;19.14;57.24;100230.78;5049049;27;97815;-74
2021/05/12 01:38:48;;;;;;;;;;;;;;;19.54;56.28;100233.84;5048469;27;97833;-74
2021/05/12 01:41:14;;;;;;;;;;;;;;;19.84;55.14;100232.19;5035959;27;96700;-74
2021/05/12 01:43:41;;;;;;;;;;;;;;;20.04;54.75;100221.66;5043738;27;98550;-73
2021/05/12 01:46:07;;;;;;;;;;;;;;;20.40;53.44;100226.69;5030794;27;98815;-74
2021/05/12 01:48:33;;;;;;;;;;;;;;;20.27;53.82;100244.75;5033477;27;97247;-75
2021/05/12 01:50:59;;;;;;;;;;;;;;;20.32;54.11;100252.41;5032084;27;97554;-75
2021/05/12 01:53:26;;;;;;;;;;;;;;;20.30;53.83;100268.63;5031256;28;98997;-75
2021/05/12 01:55:53;;;;;;;;;;;;;;;20.53;53.04;100256.00;5028866;28;98887;-73
2021/05/12 01:58:20;;;;;;;;;;;;;;;20.06;54.28;100250.06;5032969;28;97055;-76
2021/05/12 02:00:46;;;;;;;;;;;;;;;20.18;53.71;100250.88;5036774;27;97064;-75
2021/05/12 02:03:12;;;;;;;;;;;;;;;20.15;53.07;100235.06;5026446;27;99368;-76
2021/05/12 02:05:39;;;;;;;;;;;;;;;19.84;53.52;100236.72;5031533;27;98880;-75
2021/05/12 02:08:06;;;;;;;;;;;;;;;19.90;53.34;100239.75;5031936;27;98161;-75
2021/05/12 02:10:32;;;;;;;;;;;;;;;20.04;53.11;100240.44;5034310;27;96876;-76
2021/05/12 02:12:59;;;;;;;;;;;;;;;19.82;53.80;100236.00;5029197;28;98518;-76
2021/05/12 02:15:25;;;;;;;;;;;;;;;19.90;53.76;100230.84;5028778;27;98916;-76
2021/05/12 02:17:51;;;;;;;;;;;;;;;19.93;53.62;100233.28;5020395;27;99879;-74
2021/05/12 02:20:18;;;;;;;;;;;;;;;19.98;53.33;100239.13;5019773;27;96858;-74
2021/05/12 02:22:44;;;;;;;;;;;;;;;20.04;52.85;100246.66;5012282;27;99591;-75
2021/05/12 02:25:10;;;;;;;;;;;;;;;20.14;52.74;100246.75;5013612;28;98812;-75
2021/05/12 02:27:36;;;;;;;;;;;;;;;19.69;53.52;100237.97;5023214;28;97123;-75
2021/05/12 02:30:03;;;;;;;;;;;;;;;19.73;53.44;100239.44;5021800;28;97434;-75
2021/05/12 02:32:29;;;;;;;;;;;;;;;20.00;53.20;100239.84;5019106;27;99144;-76
2021/05/12 02:34:55;;;;;;;;;;;;;;;20.40;52.03;100232.03;5025775;27;98742;-74
2021/05/12 02:37:21;;;;;;;;;;;;;;;20.56;51.77;100234.25;5030591;28;98688;-75
2021/05/12 02:39:47;;;;;;;;;;;;;;;20.07;52.53;100243.72;5025595;27;98797;-75
2021/05/12 02:42:13;;;;;;;;;;;;;;;19.73;53.66;100244.78;5029302;28;99255;-75
2021/05/12 02:44:39;;;;;;;;;;;;;;;19.59;53.65;100245.03;5030801;27;98908;-76
2021/05/12 02:47:05;;;;;;;;;;;;;;;19.57;53.68;100255.03;5023115;28;96810;-76
2021/05/12 02:49:31;;;;;;;;;;;;;;;19.62;53.63;100258.22;5024999;28;97722;-75
2021/05/12 02:51:57;;;;;;;;;;;;;;;19.75;53.31;100265.13;5023688;27;98946;-76
2021/05/12 02:54:23;;;;;;;;;;;;;;;20.02;52.90;100259.31;5016005;28;99224;-75
2021/05/12 02:56:49;;;;;;;;;;;;;;;19.68;52.96;100257.72;5030056;27;97310;-75
2021/05/12 02:59:15;;;;;;;;;;;;;;;19.74;52.94;100262.56;5031450;27;96978;-75
2021/05/12 03:01:41;;;;;;;;;;;;;;;19.67;53.04;100254.19;5030260;27;99107;-75
2021/05/12 03:04:07;;;;;;;;;;;;;;;19.25;54.53;100255.75;5027109;27;97892;-76
2021/05/12 03:06:33;;;;;;;;;;;;;;;19.73;53.46;100258.19;5020767;27;96774;-76
2021/05/12 03:08:59;;;;;;;;;;;;;;;19.63;53.34;100265.25;5027914;27;97829;-75
2021/05/12 03:11:25;;;;;;;;;;;;;;;19.53;53.75;100261.63;5024774;27;98222;-75
2021/05/12 03:13:50;;;;;;;;;;;;;;;19.92;52.94;100271.78;5027317;28;99174;-75
2021/05/12 03:16:16;;;;;;;;;;;;;;;20.13;52.19;100264.69;5029047;27;97174;-75
2021/05/12 03:18:42;;;;;;;;;;;;;;;20.08;52.07;100258.00;5028264;27;97692;-76
2021/05/12 03:21:09;;;;;;;;;;;;;;;19.74;52.83;100247.34;5030235;27;98976;-75
2021/05/12 03:23:34;;;;;;;;;;;;;;;20.04;52.08;100251.16;5035637;27;98940;-76
2021/05/12 03:26:00;;;;;;;;;;;;;;;20.02;52.02;100255.81;5044789;27;98945;-76
2021/05/12 03:28:26;;;;;;;;;;;;;;;20.00;52.18;100255.94;5046700;28;98269;-75
2021/05/12 03:30:52;;;;;;;;;;;;;;;19.80;52.24;100257.56;5034854;28;98952;-75
2021/05/12 03:33:18;;;;;;;;;;;;;;;20.03;51.86;100261.03;5033685;28;98824;-76
2021/05/12 03:35:44;;;;;;;;;;;;;;;20.13;52.10;100264.69;5029610;27;97301;-76
2021/05/12 03:38:11;;;;;;;;;;;;;;;20.11;51.62;100266.63;5033799;27;96823;-76
2021/05/12 03:40:38;;;;;;;;;;;;;;;19.85;52.17;100274.13;5021436;28;99111;-76
2021/05/12 03:43:04;;;;;;;;;;;;;;;19.70;52.38;100269.13;5025231;27;99512;-76
2021/05/12 03:45:30;;;;;;;;;;;;;;;19.65;52.52;100269.53;5033376;27;97079;-76
2021/05/12 03:47:56;;;;;;;;;;;;;;;19.39;53.23;100274.25;5032080;27;98866;-75
2021/05/12 03:50:23;;;;;;;;;;;;;;;19.61;52.82;100272.59;5031413;27;98997;-74
2021/05/12 03:52:49;;;;;;;;;;;;;;;19.69;52.07;100270.97;5033792;27;99080;-75
2021/05/12 03:55:16;;;;;;;;;;;;;;;19.84;51.87;100279.59;5030993;27;98219;-74
2021/05/12 03:57:42;;;;;;;;;;;;;;;19.82;51.84;100278.91;5032724;27;97012;-74
2021/05/12 04:00:09;;;;;;;;;;;;;;;19.73;52.43;100280.50;5034027;28;101658;-75
2021/05/12 04:02:37;;;;;;;;;;;;;;;19.58;51.96;100289.75;5034162;27;98843;-76
2021/05/12 04:05:02;;;;;;;;;;;;;;;19.62;52.29;100287.69;5019993;27;99004;-75
2021/05/12 04:07:28;;;;;;;;;;;;;;;19.70;52.14;100290.59;5026999;28;96884;-76
2021/05/12 04:09:54;;;;;;;;;;;;;;;19.67;51.94;100293.53;5032281;27;101315;-74
2021/05/12 04:12:21;;;;;;;;;;;;;;;19.38;52.80;100293.13;5032235;28;99261;-74
2021/05/12 04:14:47;;;;;;;;;;;;;;;19.53;52.13;100294.63;5028074;27;96883;-75
2021/05/12 04:17:12;;;;;;;;;;;;;;;19.94;51.06;100294.00;5032026;27;96957;-75
2021/05/12 04:19:38;;;;;;;;;;;;;;;20.04;51.21;100273.47;5032019;27;99024;-75
2021/05/12 04:22:04;;;;;;;;;;;;;;;20.11;50.89;100279.19;5028560;27;98146;-76
2021/05/12 04:24:31;;;;;;;;;;;;;;;20.21;50.37;100272.94;5030515;27;96789;-76
2021/05/12 04:26:57;;;;;;;;;;;;;;;19.70;51.47;100269.13;5033232;27;96924;-75
2021/05/12 04:29:23;;;;;;;;;;;;;;;19.72;51.25;100270.75;5030749;28;98844;-75
2021/05/12 04:31:49;;;;;;;;;;;;;;;20.09;50.27;100278.44;5028611;27;98825;-76
2021/05/12 04:34:15;;;;;;;;;;;;;;;19.99;50.71;100299.81;5029665;27;96881;-75
2021/05/12 04:36:41;;;;;;;;;;;;;;;19.80;51.12;100305.81;5032345;28;97174;-75
2021/05/12 04:39:07;;;;;;;;;;;;;;;19.99;50.48;100307.00;5030835;27;98976;-76
2021/05/12 04:41:32;;;;;;;;;;;;;;;19.81;51.25;100317.41;5032007;28;97699;-75
2021/05/12 04:43:59;;;;;;;;;;;;;;;20.09;50.43;100321.34;5032046;28;96947;-75
2021/05/12 04:46:26;;;;;;;;;;;;;;;19.96;50.79;100328.69;5031563;27;98486;-76
2021/05/12 04:48:52;;;;;;;;;;;;;;;20.07;50.16;100329.56;5028229;27;100939;-76
2021/05/12 04:51:19;;;;;;;;;;;;;;;19.83;50.68;100326.16;5031910;27;97735;-76
2021/05/12 04:53:45;;;;;;;;;;;;;;;19.61;51.27;100331.53;5026034;27;96919;-75
2021/05/12 04:56:11;;;;;;;;;;;;;;;20.34;49.49;100339.03;5028641;28;96964;-76
2021/05/12 04:58:37;;;;;;;;;;;;;;;20.13;50.29;100347.81;5031989;28;99122;-75
2021/05/12 05:01:02;;;;;;;;;;;;;;;20.15;50.16;100348.53;5024565;27;97808;-75
2021/05/12 05:03:29;;;;;;;;;;;;;;;19.91;50.41;100350.53;5031751;27;96904;-76
2021/05/12 05:05:55;;;;;;;;;;;;;;;20.03;49.95;100349.53;5031574;27;97070;-76
2021/05/12 05:08:21;;;;;;;;;;;;;;;20.00;50.13;100349.81;5032547;27;99180;-76
2021/05/12 05:10:47;;;;;;;;;;;;;;;19.90;50.55;100359.53;5027287;27;99222;-75
2021/05/12 05:13:13;;;;;;;;;;;;;;;20.09;50.20;100358.91;5038560;27;96954;-74
2021/05/12 05:15:39;;;;;;;;;;;;;;;20.00;50.04;100365.88;5029192;27;97354;-74
2021/05/12 05:18:05;;;;;;;;;;;;;;;20.09;49.84;100373.19;5027888;27;98773;-76
2021/05/12 05:20:33;;;;;;;;;;;;;;;20.13;49.26;100358.56;5030137;27;98662;-74
2021/05/12 05:22:58;;;;;;;;;;;;;;;20.05;49.50;100363.69;5033651;27;98022;-76
2021/05/12 05:25:24;;;;;;;;;;;;;;;20.02;49.61;100366.59;5026719;28;97257;-75
2021/05/12 05:27:50;;;;;;;;;;;;;;;19.90;49.93;100365.75;5030988;27;98822;-75
2021/05/12 05:30:16;;;;;;;;;;;;;;;19.86;50.17;100369.69;5025526;27;98791;-76
2021/05/12 05:32:42;;;;;;;;;;;;;;;19.71;50.37;100370.88;5025657;27;98030;-75
2021/05/12 05:35:09;;;;;;;;;;;;;;;19.94;50.04;100370.91;5039972;27;96904;-74
2021/05/12 05:37:35;;;;;;;;;;;;;;;19.74;50.18;100367.97;5041372;27;98864;-75
2021/05/12 05:40:01;;;;;;;;;;;;;;;19.50;50.76;100373.44;5033267;27;97629;-74
2021/05/12 05:42:27;;;;;;;;;;;;;;;19.07;51.90;100393.75;5019832;27;96984;-74
2021/05/12 05:44:53;;;;;;;;;;;;;;;19.12;51.75;100388.91;5029277;28;96959;-75
2021/05/12 05:47:18;;;;;;;;;;;;;;;19.43;51.37;100388.25;5029924;27;98964;-75
2021/05/12 05:49:46;;;;;;;;;;;;;;;19.60;50.73;100381.63;5025770;27;97892;-75
2021/05/12 05:52:11;;;;;;;;;;;;;;;19.05;51.64;100383.16;5031597;27;97102;-75
2021/05/12 05:54:38;;;;;;;;;;;;;;;19.37;50.66;100366.44;5024046;27;97193;-75
2021/05/12 05:57:05;;;;;;;;;;;;;;;19.30;50.93;100366.06;5022705;28;99603;-76
2021/05/12 05:59:31;;;;;;;;;;;;;;;20.08;49.19;100376.88;5030351;27;99323;-75
2021/05/12 06:01:58;;;;;;;;;;;;;;;19.25;50.89;100389.66;5029097;27;97126;-75
2021/05/12 06:04:24;;;;;;;;;;;;;;;18.45;53.55;100391.25;5032118;28;96973;-75
2021/05/12 06:06:50;;;;;;;;;;;;;;;19.14;52.09;100388.78;5022451;27;98440;-75
2021/05/12 06:09:16;;;;;;;;;;;;;;;19.56;51.07;100387.34;5025653;28;99010;-73
2021/05/12 06:11:42;;;;;;;;;;;;;;;19.58;50.87;100366.63;5030670;27;98002;-75
2021/05/12 06:14:08;;;;;;;;;;;;;;;19.87;49.75;100365.16;5033073;28;96891;-75
2021/05/12 06:16:34;;;;;;;;;;;;;;;20.05;49.60;100369.03;5027417;27;98036;-76
2021/05/12 06:19:00;;;;;;;;;;;;;;;20.39;48.84;100372.56;5030485;28;99290;-76
2021/05/12 06:21:26;;;;;;;;;;;;;;;20.21;49.16;100374.91;5029977;27;96919;-75
2021/05/12 06:23:52;;;;;;;;;;;;;;;19.97;50.06;100368.81;5033944;27;96853;-76
2021/05/12 06:26:19;;;;;;;;;;;;;;;19.98;50.27;100375.03;5023442;27;99394;-75
2021/05/12 06:28:46;;;;;;;;;;;;;;;19.90;50.27;100375.63;5032021;27;98083;-76
2021/05/12 06:31:12;;;;;;;;;;;;;;;19.71;50.96;100376.25;5028319;27;97349;-75
2021/05/12 06:33:41;;;;;;;;;;;;;;;20.07;50.36;100388.56;5027206;27;98441;-76
2021/05/12 06:36:07;;;;;;;;;;;;;;;18.63;53.90;100381.06;5026381;27;98856;-76
2021/05/12 06:38:33;;;;;;;;;;;;;;;19.11;53.05;100384.50;5028301;27;99992;-76
2021/05/12 06:40:59;;;;;;;;;;;;;;;19.32;52.13;100382.00;5025486;27;98803;-77
2021/05/12 06:43:25;;;;;;;;;;;;;;;19.84;50.83;100390.38;5028647;27;98777;-76
2021/05/12 06:45:52;;;;;;;;;;;;;;;20.34;49.28;100385.50;5026651;27;98816;-75
2021/05/12 06:48:18;;;;;;;;;;;;;;;20.10;49.27;100399.03;5025453;27;98777;-77
2021/05/12 06:50:46;;;;;;;;;;;;;;;19.78;50.05;100404.28;5029310;27;97186;-76
2021/05/12 06:53:12;;;;;;;;;;;;;;;19.26;51.76;100406.59;5031926;27;97499;-77
2021/05/12 06:55:39;;;;;;;;;;;;;;;19.42;51.61;100408.00;5027453;27;98863;-75
2021/05/12 06:58:06;;;;;;;;;;;;;;;19.45;51.34;100394.34;5033465;27;97649;-77
2021/05/12 07:00:32;;;;;;;;;;;;;;;19.62;50.77;100408.31;5034130;27;98648;-77
2021/05/12 07:02:58;;;;;;;;;;;;;;;18.76;52.48;100405.94;5031203;27;98880;-75
2021/05/12 07:05:25;;;;;;;;;;;;;;;19.47;50.89;100408.50;5031358;28;98999;-76
2021/05/12 07:07:51;;;;;;;;;;;;;;;19.48;50.67;100402.19;5025527;27;98800;-76
2021/05/12 07:10:17;;;;;;;;;;;;;;;19.85;49.66;100401.97;5033784;27;96828;-75
2021/05/12 07:12:43;;;;;;;;;;;;;;;20.19;49.11;100400.97;5029888;27;96974;-75
2021/05/12 07:15:10;;;;;;;;;;;;;;;19.98;48.92;100400.00;5029244;28;98992;-75
2021/05/12 07:17:40;;;;;;;;;;;;;;;20.38;48.08;100402.19;5031485;27;98753;-76
2021/05/12 07:20:07;;;;;;;;;;;;;;;20.61;48.36;100398.50;5027737;27;96850;-77
2021/05/12 07:22:33;;;;;;;;;;;;;;;20.68;47.25;100405.88;5031529;28;99280;-74
2021/05/12 07:25:00;;;;;;;;;;;;;;;20.55;47.26;100413.25;5034390;27;98885;-76
2021/05/12 07:27:26;;;;;;;;;;;;;;;19.79;49.10;100421.22;5034652;27;98956;-75
2021/05/12 07:29:51;;;;;;;;;;;;;;;19.89;49.53;100423.03;5032582;28;96953;-75
2021/05/12 07:32:17;;;;;;;;;;;;;;;20.00;49.23;100424.88;5034760;27;98101;-75
2021/05/12 07:34:43;;;;;;;;;;;;;;;20.37;48.28;100430.84;5035307;28;98997;-76
2021/05/12 07:37:10;;;;;;;;;;;;;;;20.30;48.51;100424.25;5033582;27;98906;-77
2021/05/12 07:39:36;;;;;;;;;;;;;;;20.47;47.75;100422.94;5037771;27;97060;-76
2021/05/12 07:42:05;;;;;;;;;;;;;;;20.41;47.95;100423.44;5038609;27;96878;-78
2021/05/12 07:44:31;;;;;;;;;;;;;;;20.41;48.46;100421.59;5040284;28;97927;-76
2021/05/12 07:46:57;;;;;;;;;;;;;;;19.97;49.35;100418.91;5032290;27;98864;-76
2021/05/12 07:49:23;;;;;;;;;;;;;;;20.22;48.94;100415.94;5035819;27;97185;-75
2021/05/12 07:51:48;;;;;;;;;;;;;;;19.87;49.75;100418.78;5035355;27;97513;-75
2021/05/12 07:54:15;;;;;;;;;;;;;;;20.08;49.57;100421.59;5034136;27;98786;-76
2021/05/12 07:56:41;;;;;;;;;;;;;;;20.20;49.20;100418.78;5034768;27;97627;-74
2021/05/12 07:59:07;;;;;;;;;;;;;;;20.01;49.41;100418.56;5034244;27;98479;-76
2021/05/12 08:01:37;;;;;;;;;;;;;;;19.58;50.77;100430.94;5032647;27;96835;-74
2021/05/12 08:04:03;;;;;;;;;;;;;;;20.14;49.34;100430.00;5022664;28;99413;-75
2021/05/12 08:06:29;;;;;;;;;;;;;;;20.25;49.06;100431.81;5035163;27;98865;-75
2021/05/12 08:08:54;;;;;;;;;;;;;;;19.99;49.63;100433.91;5038311;27;97386;-76
2021/05/12 08:11:21;;;;;;;;;;;;;;;19.87;49.76;100437.56;5044982;27;96854;-73
2021/05/12 08:13:47;;;;;;;;;;;;;;;20.28;48.90;100434.28;5041165;27;99457;-75
2021/05/12 08:16:16;;;;;;;;;;;;;;;19.41;51.49;100427.72;5042200;28;97166;-76
2021/05/12 08:18:42;;;;;;;;;;;;;;;19.95;50.00;100420.88;5046438;27;98059;-77
2021/05/12 08:21:07;;;;;;;;;;;;;;;20.40;49.13;100419.03;5038493;27;97448;-75
2021/05/12 08:23:33;;;;;;;;;;;;;;;20.72;48.22;100422.63;5040182;28;97957;-75
2021/05/12 08:25:59;;;;;;;;;;;;;;;20.67;48.46;100427.50;5039401;27;97579;-75
2021/05/12 08:28:27;;;;;;;;;;;;;;;20.67;48.03;100435.56;5036447;28;96959;-75
2021/05/12 08:30:55;;;;;;;;;;;;;;;20.72;48.03;100433.34;5043132;27;97947;-76
2021/05/12 08:33:21;;;;;;;;;;;;;;;20.21;48.97;100438.41;5043170;27;100858;-76
2021/05/12 08:35:52;;;;;;;;;;;;;;;20.43;48.42;100443.78;5037714;27;98982;-74
2021/05/12 08:38:19;;;;;;;;;;;;;;;20.08;49.67;100438.56;5036353;27;96975;-75
2021/05/12 08:40:46;;;;;;;;;;;;;;;20.51;48.43;100441.31;5041618;27;97214;-74
2021/05/12 08:43:13;;;;;;;;;;;;;;;20.54;48.53;100440.25;5041222;28;98140;-74
2021/05/12 08:45:40;;;;;;;;;;;;;;;20.93;47.62;100439.63;5037719;27;98782;-75
2021/05/12 08:48:10;;;;;;;;;;;;;;;20.90;47.58;100433.66;5034231;27;97825;-76
2021/05/12 08:50:36;;;;;;;;;;;;;;;20.96;47.34;100441.19;5034843;27;97690;-73
2021/05/12 08:53:02;;;;;;;;;;;;;;;20.86;47.22;100434.91;5034149;27;100771;-74
2021/05/12 08:55:28;;;;;;;;;;;;;;;20.67;47.78;100443.63;5033958;27;98205;-75
2021/05/12 08:57:54;;;;;;;;;;;;;;;20.68;47.86;100447.97;5029119;27;97732;-74
2021/05/12 09:00:21;;;;;;;;;;;;;;;20.59;48.11;100446.94;5027413;27;98488;-74
2021/05/12 09:02:49;;;;;;;;;;;;;;;20.88;47.98;100449.88;5031671;27;99345;-75
2021/05/12 09:05:15;;;;;;;;;;;;;;;21.05;47.12;100457.41;5036815;28;99029;-75
2021/05/12 09:07:41;;;;;;;;;;;;;;;21.26;46.98;100453.94;5036474;28;98583;-74
2021/05/12 09:10:08;;;;;;;;;;;;;;;21.30;46.78;100452.69;5047313;27;96794;-74
2021/05/12 09:12:43;;;;;;;;;;;;;;;20.61;48.12;100463.75;5043906;27;98714;-76
2021/05/12 09:15:17;;;;;;;;;;;;;;;20.90;48.08;100455.13;5042573;27;99738;-74
2021/05/12 09:17:43;;;;;;;;;;;;;;;21.19;47.28;100448.22;5041995;27;97392;-72
2021/05/12 09:20:29;;;;;;;;;;;;;;;21.70;45.97;100432.16;5041928;28;97683;-73
2021/05/12 09:23:09;;;;;;;;;;;;;;;21.13;46.98;100437.13;5047042;28;96598;-77
2021/05/12 09:25:36;;;;;;;;;;;;;;;21.60;45.88;100441.13;5046490;28;98471;-76
2021/05/12 09:28:09;;;;;;;;;;;;;;;21.04;47.23;100442.28;5034785;27;98518;-75
2021/05/12 09:30:37;;;;;;;;;;;;;;;20.98;47.53;100445.47;5036539;27;97074;-75
2021/05/12 09:33:03;;;;;;;;;;;;;;;20.66;48.82;100439.22;5038187;27;97952;-76
2021/05/12 09:35:32;;;;;;;;;;;;;;;20.69;48.55;100445.19;5035463;28;97732;-73
2021/05/12 09:37:58;;;;;;;;;;;;;;;20.42;49.06;100447.44;5028803;28;96809;-74
2021/05/12 09:40:24;;;;;;;;;;;;;;;20.92;47.96;100445.97;5024495;27;98541;-73
2021/05/12 09:42:57;;;;;;;;;;;;;;;21.19;47.34;100433.94;5041827;27;99714;-74
2021/05/12 09:45:24;;;;;;;;;;;;;;;20.77;48.74;100427.59;5032984;28;98863;-75
2021/05/12 09:47:55;;;;;;;;;;;;;;;20.14;50.55;100431.84;5036528;28;96710;-74
2021/05/12 09:50:25;;;;;;;;;;;;;;;20.85;48.57;100428.66;5028381;28;97202;-75
2021/05/12 09:52:52;;;;;;;;;;;;;;;20.76;49.12;100431.25;5028226;27;99248;-76
2021/05/12 09:55:18;;;;;;;;;;;;;;;20.50;48.94;100425.34;5040450;27;99430;-73
2021/05/12 09:57:57;;;;;;;;;;;;;;;20.85;48.45;100427.81;5033362;27;97126;-74
2021/05/12 10:00:26;;;;;;;;;;;;;;;21.09;47.47;100415.00;5029801;27;96947;-75
2021/05/12 10:02:52;;;;;;;;;;;;;;;21.31;47.11;100406.03;5031056;27;99270;-75
2021/05/12 10:05:18;;;;;;;;;;;;;;;21.63;46.47;100409.47;5031877;27;97747;-75
2021/05/12 10:07:49;;;;;;;;;;;;;;;21.57;46.39;100409.16;5028355;28;97039;-76
2021/05/12 10:10:33;;;;;;;;;;;;;;;21.52;46.82;100408.72;5031826;28;98132;-75
2021/05/12 10:12:59;;;;;;;;;;;;;;;20.70;48.70;100405.75;5031356;28;98890;-75
2021/05/12 10:15:25;;;;;;;;;;;;;;;21.41;47.41;100413.16;5029757;28;99256;-74
2021/05/12 10:17:50;;;;;;;;;;;;;;;21.06;48.28;100416.13;5037660;27;97125;-75
2021/05/12 10:20:16;;;;;;;;;;;;;;;20.93;48.56;100426.22;5037517;27;97225;-75
2021/05/12 10:22:44;;;;;;;;;;;;;;;20.92;48.54;100426.31;5037958;27;98885;-76
2021/05/12 10:25:09;;;;;;;;;;;;;;;21.17;48.02;100430.53;5031927;28;98827;-75
2021/05/12 10:27:37;;;;;;;;;;;;;;;21.49;47.28;100417.88;5031303;28;96918;-76
2021/05/12 10:30:07;;;;;;;;;;;;;;;21.62;47.34;100414.97;5027640;27;97257;-76
2021/05/12 10:32:35;;;;;;;;;;;;;;;20.82;48.56;100412.78;5030950;28;98901;-75
2021/05/12 10:35:02;;;;;;;;;;;;;;;21.30;47.82;100428.50;5029577;27;99064;-76
2021/05/12 10:37:29;;;;;;;;;;;;;;;21.20;47.80;100423.03;5032024;28;96952;-75
2021/05/12 10:39:59;;;;;;;;;;;;;;;21.38;47.39;100421.50;5024991;27;97269;-76
2021/05/12 10:42:51;;;;;;;;;;;;;;;21.32;47.57;100432.78;5026901;28;98939;-77
2021/05/12 10:45:21;;;;;;;;;;;;;;;21.15;47.76;100419.00;5015305;27;97736;-76
2021/05/12 10:47:47;;;;;;;;;;;;;;;22.00;45.76;100423.25;5024693;27;97002;-74
2021/05/12 10:50:13;;;;;;;;;;;;;;;21.90;45.80;100418.81;5030371;28;97240;-77
2021/05/12 10:52:38;;;;;;;;;;;;;;;21.65;46.79;100426.34;5024687;27;99119;-74
2021/05/12 10:55:04;;;;;;;;;;;;;;;20.01;50.69;100431.97;5031076;27;99012;-75
2021/05/12 10:57:46;;;;;;;;;;;;;;;19.87;51.41;100434.88;5028595;27;98701;-76
2021/05/12 11:00:13;;;;;;;;;;;;;;;20.54;50.08;100434.88;5032133;27;96904;-75
2021/05/12 11:03:03;;;;;;;;;;;;;;;21.50;47.42;100435.72;5031948;27;99136;-74
2021/05/12 11:05:43;;;;;;;;;;;;;;;21.13;48.33;100437.97;5018528;27;98390;-75
2021/05/12 11:08:13;;;;;;;;;;;;;;;20.19;50.86;100440.38;5028601;27;96964;-73
2021/05/12 11:10:48;;;;;;;;;;;;;;;20.59;49.58;100444.25;5026183;27;98225;-76
2021/05/12 11:13:21;;;;;;;;;;;;;;;21.19;48.74;100448.22;5029178;27;98200;-75
2021/05/12 11:15:51;;;;;;;;;;;;;;;21.30;47.68;100439.25;5030254;27;99332;-76
2021/05/12 11:18:31;;;;;;;;;;;;;;;21.38;47.73;100442.16;5033351;27;98787;-75
2021/05/12 11:21:12;;;;;;;;;;;;;;;21.28;47.99;100455.50;5030153;27;96982;-75
2021/05/12 11:23:58;;;;;;;;;;;;;;;21.06;48.71;100453.75;5029803;27;101599;-76
2021/05/12 11:26:40;;;;;;;;;;;;;;;22.10;46.10;100447.53;5022827;27;98853;-76
2021/05/12 11:29:10;;;;;;;;;;;;;;;21.16;48.32;100442.25;5031156;27;97704;-76
2021/05/12 11:31:39;;;;;;;;;;;;;;;20.75;49.81;100449.19;5029065;27;97346;-77
2021/05/12 11:34:05;;;;;;;;;;;;;;;21.18;48.12;100451.03;5029926;27;98362;-78
2021/05/12 11:36:35;;;;;;;;;;;;;;;21.12;48.69;100455.06;5033176;27;98871;-75
2021/05/12 11:39:01;;;;;;;;;;;;;;;21.07;48.76;100457.25;5034221;27;98275;-77
2021/05/12 11:41:27;;;;;;;;;;;;;;;20.85;49.03;100455.53;5033343;27;97491;-78
2021/05/12 11:43:54;;;;;;;;;;;;;;;20.94;49.04;100448.50;5035904;27;98881;-76
2021/05/12 11:46:21;;;;;;;;;;;;;;;20.81;49.25;100446.00;5031351;28;99332;-78
2021/05/12 11:48:49;;;;;;;;;;;;;;;21.08;48.64;100445.53;5033415;28;97680;-76
2021/05/12 11:51:19;;;;;;;;;;;;;;;21.66;47.17;100446.00;5031075;27;97341;-76
2021/05/12 11:53:45;;;;;;;;;;;;;;;21.38;47.40;100455.59;5029274;28;97891;-76
2021/05/12 11:56:12;;;;;;;;;;;;;;;21.50;47.27;100459.06;5027351;28;98928;-74
2021/05/12 11:58:39;;;;;;;;;;;;;;;20.47;49.95;100460.50;5030433;28;96761;-74
2021/05/12 12:01:06;;;;;;;;;;;;;;;20.54;50.44;100459.03;5030901;27;97392;-76
2021/05/12 12:03:33;;;;;;;;;;;;;;;20.47;50.47;100457.81;5029951;27;101586;-76
2021/05/12 12:06:03;;;;;;;;;;;;;;;20.74;50.12;100462.78;5035778;27;98099;-76
2021/05/12 12:08:29;;;;;;;;;;;;;;;21.09;48.93;100458.84;5034051;28;97192;-75
2021/05/12 12:11:04;;;;;;;;;;;;;;;20.61;50.29;100462.91;5034648;28;96807;-76
2021/05/12 12:13:31;;;;;;;;;;;;;;;21.32;48.03;100456.97;5026321;28;98201;-75
2021/05/12 12:15:57;;;;;;;;;;;;;;;21.69;47.71;100454.66;5027496;27;98965;-76
2021/05/12 12:18:27;;;;;;;;;;;;;;;21.34;48.46;100452.28;5030158;27;96895;-75
2021/05/12 12:20:52;;;;;;;;;;;;;;;21.30;48.25;100458.06;5031077;27;97022;-74
2021/05/12 12:23:24;;;;;;;;;;;;;;;21.56;47.57;100451.31;5027582;27;99083;-74
2021/05/12 12:26:07;;;;;;;;;;;;;;;21.34;48.06;100464.88;5027930;28;98919;-75
2021/05/12 12:28:34;;;;;;;;;;;;;;;21.82;47.00;100462.50;5025740;28;97559;-75
2021/05/12 12:31:00;;;;;;;;;;;;;;;21.20;48.75;100462.53;5029811;27;98800;-75
2021/05/12 12:33:25;;;;;;;;;;;;;;;21.55;48.13;100468.44;5030975;28;98932;-76
2021/05/12 12:36:01;;;;;;;;;;;;;;;21.42;48.17;100465.06;5037501;28;99237;-75